KMFV

Accomack County Airport

Melfa, Virginia, USA
METAR KMFV 140455Z AUTO 35011G18KT 10SM SCT050 OVC070 09/02 A3023 RMK AO2 T00900024 401820090
Observed Flight Rules
Nov-14 @ 04:55 UTC (13 minutes ago) Visual Flight Rules
Wind Visibility Clouds
350° at 11 knots
 Gusting to 18 knots
10 miles
  • Scattered at 5,000' AGL
  • Overcast at 7,000' AGL
Temperatures Readings
Current 9°C / 48°F
Dewpoint 2°C / 36°F
Humidity 62%
Altimeter 30.23" Hg
Pressure 1024 hPa
Elevation 15
METAR KMFV 140455Z AUTO 35011G18KT 10SM SCT050 OVC070 09/02 A3023 RMK AO2 T00900024 401820090
Observed Flight Rules
Nov-14 @ 04:55 UTC
(13 minutes ago)
VFR
Wind Visibility
350° at 11 knots
 Gusting to 18 knots
10 miles
Clouds
  • Scattered at 5,000' AGL
  • Overcast at 7,000' AGL
Temperature Dewpoint
9°C / 48°F 2°C / 36°F
Humidity Altimeter Pressure
62% 30.23" Hg 1024 hPa